createdAt,value
2019-03-28T00:01:35.737Z,10.40
2019-03-28T00:04:04.079Z,10.41
2019-03-28T00:06:31.941Z,10.41
2019-03-28T00:08:59.916Z,10.40
2019-03-28T00:11:27.809Z,10.37
2019-03-28T00:13:55.664Z,10.36
2019-03-28T00:16:23.450Z,10.44
2019-03-28T00:18:51.259Z,10.37
2019-03-28T00:21:19.097Z,10.39
2019-03-28T00:24:01.211Z,10.38
2019-03-28T00:26:30.477Z,10.48
2019-03-28T00:28:58.497Z,10.49
2019-03-28T00:31:26.330Z,10.52
2019-03-28T00:33:54.173Z,10.53
2019-03-28T00:36:22.010Z,10.53
2019-03-28T00:38:50.172Z,10.59
2019-03-28T00:41:18.257Z,10.40
2019-03-28T00:43:46.072Z,10.40
2019-03-28T00:46:13.890Z,10.47
2019-03-28T00:48:41.844Z,10.44
2019-03-28T00:51:09.684Z,10.44
2019-03-28T00:53:37.534Z,10.48
2019-03-28T00:56:05.381Z,10.44
2019-03-28T00:58:33.246Z,10.35
2019-03-28T01:01:01.067Z,10.39
2019-03-28T01:03:28.967Z,10.39
2019-03-28T01:05:56.778Z,10.39
2019-03-28T01:08:24.638Z,10.30
2019-03-28T01:10:52.462Z,10.32
2019-03-28T01:13:20.306Z,10.25
2019-03-28T01:15:48.156Z,10.25
2019-03-28T01:18:16.001Z,10.32
2019-03-28T01:20:43.780Z,10.44
2019-03-28T01:23:11.637Z,10.44
2019-03-28T01:25:39.445Z,10.44
2019-03-28T01:28:07.216Z,10.40
2019-03-28T01:30:35.085Z,10.39
2019-03-28T01:33:02.877Z,10.41
2019-03-28T01:35:30.673Z,10.47
2019-03-28T01:37:58.527Z,10.43
2019-03-28T01:40:26.401Z,10.44
2019-03-28T01:42:54.238Z,10.47
2019-03-28T01:45:22.039Z,10.46
2019-03-28T01:47:49.822Z,10.43
2019-03-28T01:50:17.728Z,10.48
2019-03-28T01:52:45.526Z,10.50
2019-03-28T01:55:13.350Z,10.49
2019-03-28T01:57:41.193Z,10.46
2019-03-28T02:00:10.093Z,10.33
2019-03-28T02:02:37.905Z,10.32
2019-03-28T02:05:06.332Z,10.34
2019-03-28T02:07:34.095Z,10.34
2019-03-28T02:10:01.931Z,10.38
2019-03-28T02:12:29.776Z,10.42
2019-03-28T02:14:57.678Z,10.47
2019-03-28T02:17:25.558Z,10.50
2019-03-28T02:19:53.381Z,10.55
2019-03-28T02:22:21.180Z,10.57
2019-03-28T02:24:49.051Z,10.60
2019-03-28T02:27:23.979Z,10.57
2019-03-28T02:29:46.669Z,10.57
2019-03-28T02:32:14.569Z,10.58
2019-03-28T02:34:42.513Z,10.53
2019-03-28T02:37:10.456Z,10.60
2019-03-28T02:39:38.297Z,10.61
2019-03-28T02:42:06.169Z,10.62
2019-03-28T02:44:34.072Z,10.63
2019-03-28T02:47:01.905Z,10.67
2019-03-28T02:49:29.867Z,10.70
2019-03-28T02:51:57.710Z,10.73
2019-03-28T02:54:25.555Z,10.73
2019-03-28T02:56:53.552Z,10.73
2019-03-28T02:59:21.380Z,10.76
2019-03-28T03:01:49.177Z,10.77
2019-03-28T03:04:17.120Z,10.73
2019-03-28T03:06:44.996Z,10.70
2019-03-28T03:09:12.857Z,10.73
2019-03-28T03:11:42.715Z,10.78
2019-03-28T03:14:11.881Z,10.78
2019-03-28T03:16:40.061Z,10.79
2019-03-28T03:19:07.901Z,10.82
2019-03-28T03:21:36.070Z,10.85
2019-03-28T03:24:04.152Z,10.81
2019-03-28T03:26:32.043Z,10.81
2019-03-28T03:28:59.886Z,10.82
2019-03-28T03:31:27.705Z,10.82
2019-03-28T03:33:55.588Z,10.80
2019-03-28T03:36:23.458Z,10.83
2019-03-28T03:38:51.298Z,10.80
2019-03-28T03:41:19.169Z,10.86
2019-03-28T03:43:46.960Z,10.85
2019-03-28T03:46:14.781Z,10.83
2019-03-28T03:48:42.744Z,10.85
2019-03-28T03:51:10.626Z,10.85
2019-03-28T03:53:38.461Z,10.82
2019-03-28T03:56:06.432Z,10.81
2019-03-28T03:58:34.245Z,10.80
2019-03-28T04:01:02.121Z,10.80
2019-03-28T04:03:30.034Z,10.80
2019-03-28T04:05:57.903Z,10.79
2019-03-28T04:08:26.995Z,10.66
2019-03-28T04:10:55.220Z,10.65
2019-03-28T04:13:23.016Z,10.65
2019-03-28T04:15:51.031Z,10.65
2019-03-28T04:18:22.086Z,10.69
2019-03-28T04:20:48.684Z,10.71
2019-03-28T04:23:16.553Z,10.72
2019-03-28T04:25:44.367Z,10.65
2019-03-28T04:28:12.769Z,10.65
2019-03-28T04:30:40.871Z,10.66
2019-03-28T04:33:08.734Z,10.69
2019-03-28T04:35:36.559Z,10.71
2019-03-28T04:38:04.373Z,10.71
2019-03-28T04:40:32.247Z,10.74
2019-03-28T04:43:00.114Z,10.74
2019-03-28T04:45:28.035Z,10.68
2019-03-28T04:47:55.984Z,10.68
2019-03-28T04:50:23.800Z,10.70
2019-03-28T04:52:53.002Z,10.69
2019-03-28T04:55:21.390Z,10.69
2019-03-28T04:57:49.367Z,10.72
2019-03-28T05:00:17.532Z,10.72
2019-03-28T05:02:46.116Z,10.73
2019-03-28T05:05:14.241Z,10.74
2019-03-28T05:07:42.402Z,10.74
2019-03-28T05:10:11.207Z,10.72
2019-03-28T05:12:39.062Z,10.69
2019-03-28T05:15:08.759Z,10.56
2019-03-28T05:17:36.756Z,10.31
2019-03-28T05:20:05.501Z,10.31
2019-03-28T05:22:33.335Z,10.33
2019-03-28T05:25:01.199Z,10.41
2019-03-28T05:27:29.063Z,10.41
2019-03-28T05:29:56.864Z,10.33
2019-03-28T05:32:24.684Z,10.42
2019-03-28T05:34:52.547Z,10.34
2019-03-28T05:37:20.360Z,10.39
2019-03-28T05:39:48.234Z,10.41
2019-03-28T05:42:16.187Z,10.46
2019-03-28T05:44:44.031Z,10.39
2019-03-28T05:47:11.839Z,10.39
2019-03-28T05:49:39.710Z,10.30
2019-03-28T05:52:07.569Z,10.21
2019-03-28T05:54:35.448Z,10.21
2019-03-28T05:57:03.309Z,10.21
2019-03-28T05:59:31.152Z,10.33
2019-03-28T06:01:59.004Z,10.27
2019-03-28T06:04:26.870Z,10.32
2019-03-28T06:06:54.788Z,10.31
2019-03-28T06:09:22.640Z,10.44
2019-03-28T06:11:52.855Z,10.48
2019-03-28T06:14:20.278Z,10.47
2019-03-28T06:16:48.110Z,10.47
2019-03-28T06:19:16.002Z,10.39
2019-03-28T06:21:43.858Z,10.48
2019-03-28T06:24:11.761Z,10.54
2019-03-28T06:26:39.603Z,10.56
2019-03-28T06:29:08.697Z,10.52
2019-03-28T06:31:36.888Z,10.29
2019-03-28T06:34:04.772Z,10.29
2019-03-28T06:36:32.612Z,10.28
2019-03-28T06:39:00.472Z,10.42
2019-03-28T06:41:28.406Z,10.37
2019-03-28T06:43:56.188Z,10.30
2019-03-28T06:46:24.077Z,10.34
2019-03-28T06:48:51.962Z,10.50
2019-03-28T06:51:19.772Z,10.59
2019-03-28T06:53:47.670Z,10.65
2019-03-28T06:56:15.469Z,10.77
2019-03-28T06:58:43.334Z,10.77
2019-03-28T07:01:11.241Z,10.85
2019-03-28T07:03:39.050Z,10.94
2019-03-28T07:06:06.914Z,10.94
2019-03-28T07:08:34.775Z,10.96
2019-03-28T07:11:02.791Z,11.00
2019-03-28T07:13:31.212Z,11.04
2019-03-28T07:15:59.068Z,11.04
2019-03-28T07:18:26.904Z,11.06
2019-03-28T07:20:54.768Z,11.06
2019-03-28T07:23:22.671Z,11.06
2019-03-28T07:25:50.487Z,11.11
2019-03-28T07:28:18.317Z,11.16
2019-03-28T07:30:46.201Z,11.15
2019-03-28T07:33:14.063Z,11.16
2019-03-28T07:35:42.038Z,11.20
2019-03-28T07:38:10.143Z,11.20
2019-03-28T07:40:37.963Z,11.22
2019-03-28T07:43:05.859Z,11.22
2019-03-28T07:45:34.662Z,11.33
2019-03-28T07:48:02.699Z,11.24
2019-03-28T07:50:33.366Z,11.33
2019-03-28T07:53:00.343Z,11.21
2019-03-28T07:55:28.234Z,11.28
2019-03-28T07:57:56.070Z,11.34
2019-03-28T08:00:23.947Z,11.42
2019-03-28T08:02:51.760Z,11.42
2019-03-28T08:05:20.219Z,11.41
2019-03-28T08:07:48.089Z,11.47
2019-03-28T08:10:16.144Z,11.41
2019-03-28T08:12:44.018Z,11.45
2019-03-28T08:15:12.136Z,11.53
2019-03-28T08:17:39.975Z,11.52
2019-03-28T08:20:08.877Z,11.48
2019-03-28T08:22:36.677Z,11.50
2019-03-28T08:25:09.554Z,11.60
2019-03-28T08:27:34.764Z,11.54
2019-03-28T08:30:02.925Z,11.56
2019-03-28T08:32:30.840Z,11.40
2019-03-28T08:34:58.709Z,11.53
2019-03-28T08:37:27.422Z,11.42
2019-03-28T08:39:55.769Z,11.47
2019-03-28T08:42:24.156Z,11.56
2019-03-28T08:44:51.976Z,11.61
2019-03-28T08:47:19.822Z,11.70
2019-03-28T08:49:47.679Z,11.81
2019-03-28T08:52:15.476Z,11.93
2019-03-28T08:54:43.347Z,12.01
2019-03-28T08:57:11.172Z,12.07
2019-03-28T08:59:38.984Z,12.07
2019-03-28T09:02:07.290Z,12.05
2019-03-28T09:04:35.149Z,12.08
2019-03-28T09:07:03.346Z,12.23
2019-03-28T09:09:31.158Z,12.14
2019-03-28T09:11:58.989Z,12.32
2019-03-28T09:14:26.821Z,12.17
2019-03-28T09:16:54.621Z,12.15
2019-03-28T09:19:22.503Z,12.21
2019-03-28T09:21:50.315Z,12.36
2019-03-28T09:24:18.192Z,12.27
2019-03-28T09:26:46.047Z,12.24
2019-03-28T09:29:13.887Z,12.43
2019-03-28T09:31:41.805Z,12.40
2019-03-28T09:34:09.641Z,12.50
2019-03-28T09:36:40.216Z,12.58
2019-03-28T09:39:08.986Z,12.61
2019-03-28T09:41:36.803Z,12.65
2019-03-28T09:44:04.614Z,12.40
2019-03-28T09:46:32.463Z,12.41
2019-03-28T09:49:00.470Z,12.33
2019-03-28T09:51:28.261Z,12.49
2019-03-28T09:53:56.120Z,12.43
2019-03-28T09:56:24.034Z,12.49
2019-03-28T09:58:51.831Z,12.48
2019-03-28T10:01:19.770Z,12.56
2019-03-28T10:03:47.654Z,12.64
2019-03-28T10:06:15.555Z,12.65
2019-03-28T10:08:43.569Z,12.53
2019-03-28T10:11:11.374Z,12.63
2019-03-28T10:13:39.208Z,12.59
2019-03-28T10:16:07.101Z,12.45
2019-03-28T10:18:34.933Z,12.49
2019-03-28T10:21:02.779Z,12.48
2019-03-28T10:23:30.576Z,12.70
2019-03-28T10:25:58.437Z,12.87
2019-03-28T10:28:26.288Z,12.84
2019-03-28T10:30:54.148Z,12.81
2019-03-28T10:33:22.020Z,12.93
2019-03-28T10:35:49.855Z,12.98
2019-03-28T10:38:18.847Z,13.15
2019-03-28T10:40:47.126Z,13.27
2019-03-28T10:43:15.010Z,13.38
2019-03-28T10:45:42.834Z,13.35
2019-03-28T10:48:10.673Z,13.37
2019-03-28T10:50:45.551Z,13.49
2019-03-28T10:53:08.184Z,13.49
2019-03-28T10:55:36.274Z,13.50
2019-03-28T10:58:17.779Z,13.58
2019-03-28T11:00:34.756Z,13.63
2019-03-28T11:03:02.757Z,13.66
2019-03-28T11:05:30.733Z,13.62
2019-03-28T11:07:58.719Z,13.77
2019-03-28T11:10:27.762Z,13.58
2019-03-28T11:12:57.855Z,13.69
2019-03-28T11:15:26.962Z,13.52
2019-03-28T11:17:54.779Z,13.65
2019-03-28T11:20:25.636Z,13.68
2019-03-28T11:22:53.723Z,13.73
2019-03-28T11:25:21.597Z,13.49
2019-03-28T11:27:49.850Z,13.55
2019-03-28T11:30:18.571Z,13.69
2019-03-28T11:32:46.602Z,13.76
2019-03-28T11:35:14.468Z,13.77
2019-03-28T11:37:42.254Z,13.58
2019-03-28T11:40:10.506Z,13.57
2019-03-28T11:42:38.376Z,13.62
2019-03-28T11:45:09.229Z,13.58
2019-03-28T11:47:36.998Z,13.75
2019-03-28T11:50:05.745Z,13.80
2019-03-28T11:52:34.762Z,13.75
2019-03-28T11:55:02.674Z,13.71
2019-03-28T11:57:30.487Z,13.75
2019-03-28T11:59:58.319Z,13.83
2019-03-28T12:02:26.115Z,13.77
2019-03-28T12:04:53.974Z,13.81
2019-03-28T12:07:21.910Z,13.80
2019-03-28T12:09:49.840Z,13.79
2019-03-28T12:12:17.664Z,13.68
2019-03-28T12:14:45.524Z,13.82
2019-03-28T12:17:13.351Z,13.60
2019-03-28T12:19:41.179Z,13.68
2019-03-28T12:22:08.974Z,13.66
2019-03-28T12:24:36.823Z,13.71
2019-03-28T12:27:04.704Z,13.74
2019-03-28T12:29:35.707Z,13.74
2019-03-28T12:32:13.408Z,13.85
2019-03-28T12:34:32.010Z,13.73
2019-03-28T12:36:59.849Z,13.76
2019-03-28T12:39:27.635Z,13.69
2019-03-28T12:41:55.496Z,13.82
2019-03-28T12:44:23.324Z,13.79
2019-03-28T12:46:51.174Z,13.85
2019-03-28T12:49:18.998Z,13.96
2019-03-28T12:51:46.794Z,13.81
2019-03-28T12:54:14.638Z,13.83
2019-03-28T12:56:42.523Z,13.80
2019-03-28T12:59:10.366Z,13.55
2019-03-28T13:01:38.203Z,13.56
2019-03-28T13:04:05.995Z,13.82
2019-03-28T13:06:33.823Z,13.95
2019-03-28T13:09:01.668Z,13.88
2019-03-28T13:11:29.516Z,13.91
2019-03-28T13:13:57.316Z,13.80
2019-03-28T13:16:25.224Z,13.75
2019-03-28T13:18:53.276Z,13.91
2019-03-28T13:21:24.070Z,14.01
2019-03-28T13:23:52.109Z,14.15
2019-03-28T13:26:19.931Z,14.15
2019-03-28T13:28:47.715Z,14.09
2019-03-28T13:31:15.526Z,14.13
2019-03-28T13:33:43.478Z,14.31
2019-03-28T13:36:11.252Z,14.20
2019-03-28T13:38:39.089Z,14.17
2019-03-28T13:41:06.982Z,14.34
2019-03-28T13:43:34.793Z,14.21
2019-03-28T13:46:02.601Z,14.04
2019-03-28T13:48:30.470Z,14.24
2019-03-28T13:50:58.311Z,14.07
2019-03-28T13:53:38.657Z,14.08
2019-03-28T13:55:55.819Z,14.19
2019-03-28T13:58:23.614Z,14.24
2019-03-28T14:00:54.410Z,14.36
2019-03-28T14:03:21.117Z,14.52
2019-03-28T14:05:48.948Z,14.52
2019-03-28T14:08:16.837Z,14.42
2019-03-28T14:10:44.752Z,14.48
2019-03-28T14:13:12.590Z,14.42
2019-03-28T14:15:40.418Z,14.44
2019-03-28T14:18:08.197Z,14.59
2019-03-28T14:20:36.072Z,14.65
2019-03-28T14:23:03.891Z,14.79
2019-03-28T14:25:31.699Z,14.90
2019-03-28T14:27:59.508Z,14.57
2019-03-28T14:30:27.345Z,14.65
2019-03-28T14:33:09.993Z,14.79
2019-03-28T14:35:24.996Z,14.84
2019-03-28T14:37:52.771Z,14.98
2019-03-28T14:40:20.751Z,14.99
2019-03-28T14:42:48.583Z,14.92
2019-03-28T14:45:16.458Z,15.07
2019-03-28T14:47:44.214Z,15.13
2019-03-28T14:50:12.355Z,15.08
2019-03-28T14:52:43.269Z,15.19
2019-03-28T14:55:11.115Z,15.21
2019-03-28T14:57:40.087Z,15.25
2019-03-28T15:00:15.778Z,15.30
2019-03-28T15:02:43.668Z,15.30
2019-03-28T15:05:11.610Z,15.34
2019-03-28T15:07:40.375Z,15.09
2019-03-28T15:10:08.343Z,15.01
2019-03-28T15:12:36.189Z,15.00
2019-03-28T15:15:04.286Z,14.91
2019-03-28T15:17:32.101Z,14.73
2019-03-28T15:19:59.920Z,14.60
2019-03-28T15:22:27.680Z,14.29
2019-03-28T15:24:55.535Z,14.76
2019-03-28T15:27:23.383Z,14.75
2019-03-28T15:29:51.187Z,14.94
2019-03-28T15:32:19.024Z,14.86
2019-03-28T15:34:46.828Z,14.89
2019-03-28T15:37:14.612Z,14.99
2019-03-28T15:39:42.399Z,15.11
2019-03-28T15:42:10.201Z,15.03
2019-03-28T15:44:39.470Z,15.13
2019-03-28T15:47:07.352Z,15.11
2019-03-28T15:49:35.173Z,15.14
2019-03-28T15:52:03.376Z,15.20
2019-03-28T15:54:31.348Z,15.20
2019-03-28T15:56:59.256Z,15.15
2019-03-28T15:59:27.100Z,15.23
2019-03-28T16:01:54.894Z,15.29
2019-03-28T16:04:24.816Z,15.33
2019-03-28T16:06:52.447Z,15.35
2019-03-28T16:09:20.530Z,15.33
2019-03-28T16:12:01.671Z,15.37
2019-03-28T16:14:18.100Z,15.36
2019-03-28T16:16:45.889Z,15.38
2019-03-28T16:19:13.656Z,15.36
2019-03-28T16:21:41.476Z,15.41
2019-03-28T16:24:09.251Z,15.43
2019-03-28T16:26:37.040Z,15.45
2019-03-28T16:29:04.885Z,15.48
2019-03-28T16:31:32.693Z,15.45
2019-03-28T16:34:06.922Z,15.45
2019-03-28T16:36:30.197Z,15.35
2019-03-28T16:38:57.963Z,15.35
2019-03-28T16:41:25.758Z,15.34
2019-03-28T16:43:53.548Z,15.31
2019-03-28T16:46:21.366Z,15.20
2019-03-28T16:48:49.176Z,15.25
2019-03-28T16:51:17.662Z,15.15
2019-03-28T16:53:45.504Z,15.14
2019-03-28T16:56:13.303Z,15.12
2019-03-28T16:58:43.769Z,15.18
2019-03-28T17:01:11.741Z,15.14
2019-03-28T17:03:39.553Z,15.17
2019-03-28T17:06:08.036Z,15.16
2019-03-28T17:08:38.727Z,15.17
2019-03-28T17:11:06.553Z,15.18
2019-03-28T17:13:34.323Z,15.20
2019-03-28T17:16:02.065Z,15.19
2019-03-28T17:18:31.264Z,15.20
2019-03-28T17:20:59.531Z,15.21
2019-03-28T17:23:28.336Z,15.19
2019-03-28T17:25:56.143Z,15.19
2019-03-28T17:28:23.944Z,15.21
2019-03-28T17:30:51.825Z,15.21
2019-03-28T17:33:20.898Z,15.22
2019-03-28T17:35:49.016Z,15.23
2019-03-28T17:38:16.853Z,15.22
2019-03-28T17:40:44.686Z,15.23
2019-03-28T17:43:12.591Z,15.22
2019-03-28T17:45:40.523Z,15.23
2019-03-28T17:48:08.531Z,15.20
2019-03-28T17:50:36.299Z,15.19
2019-03-28T17:53:04.225Z,15.17
2019-03-28T17:55:32.385Z,15.17
2019-03-28T17:58:00.227Z,15.17
2019-03-28T18:00:28.359Z,15.15
2019-03-28T18:03:08.390Z,15.14
2019-03-28T18:05:26.085Z,15.17
2019-03-28T18:07:53.984Z,15.17
2019-03-28T18:10:21.955Z,15.04
2019-03-28T18:12:49.762Z,14.78
2019-03-28T18:15:17.601Z,14.71
2019-03-28T18:17:45.414Z,14.75
2019-03-28T18:20:13.685Z,14.63
2019-03-28T18:22:41.577Z,14.66
2019-03-28T18:25:10.001Z,14.67
2019-03-28T18:27:37.777Z,14.68
2019-03-28T18:30:06.174Z,14.66
2019-03-28T18:32:33.967Z,14.65
2019-03-28T18:35:05.545Z,14.67
2019-03-28T18:37:31.441Z,14.66
2019-03-28T18:39:59.271Z,14.65
2019-03-28T18:42:27.081Z,14.67
2019-03-28T18:44:54.872Z,14.67
2019-03-28T18:47:22.651Z,14.68
2019-03-28T18:49:50.613Z,14.67
2019-03-28T18:52:18.557Z,14.67
2019-03-28T18:54:46.397Z,14.67
2019-03-28T18:57:14.187Z,14.66
2019-03-28T18:59:41.966Z,14.65
2019-03-28T19:02:09.765Z,14.62
2019-03-28T19:04:37.584Z,14.59
2019-03-28T19:07:05.441Z,14.57
2019-03-28T19:09:33.239Z,14.54
2019-03-28T19:12:01.061Z,14.53
2019-03-28T19:14:28.866Z,14.52
2019-03-28T19:16:56.669Z,14.47
2019-03-28T19:19:38.375Z,14.43
2019-03-28T19:21:55.934Z,14.38
2019-03-28T19:24:24.191Z,14.32
2019-03-28T19:26:52.846Z,14.25
2019-03-28T19:29:20.729Z,14.22
2019-03-28T19:31:48.594Z,14.25
2019-03-28T19:34:16.366Z,14.27
2019-03-28T19:36:45.250Z,14.29
2019-03-28T19:39:16.626Z,14.26
2019-03-28T19:41:44.544Z,14.21
2019-03-28T19:44:12.475Z,14.21
2019-03-28T19:46:41.802Z,14.23
2019-03-28T19:49:09.745Z,14.24
2019-03-28T19:51:37.570Z,14.25
2019-03-28T19:54:05.359Z,14.25
2019-03-28T19:56:35.961Z,14.25
2019-03-28T19:59:04.288Z,14.26
2019-03-28T20:01:32.070Z,14.26
2019-03-28T20:03:59.914Z,14.25
2019-03-28T20:06:27.681Z,14.24
2019-03-28T20:08:55.554Z,14.24
2019-03-28T20:11:23.518Z,14.24
2019-03-28T20:13:51.381Z,14.22
2019-03-28T20:16:19.237Z,14.22
2019-03-28T20:18:47.036Z,14.20
2019-03-28T20:21:14.844Z,14.15
2019-03-28T20:23:42.678Z,14.09
2019-03-28T20:26:10.452Z,14.10
2019-03-28T20:28:38.240Z,14.09
2019-03-28T20:31:06.030Z,14.09
2019-03-28T20:33:33.813Z,14.09
2019-03-28T20:36:19.914Z,14.01
2019-03-28T20:38:31.430Z,13.91
2019-03-28T20:40:59.212Z,13.93
2019-03-28T20:43:27.087Z,13.95
2019-03-28T20:45:54.980Z,13.96
2019-03-28T20:48:22.771Z,13.99
2019-03-28T20:50:50.526Z,14.01
2019-03-28T20:53:18.416Z,14.01
2019-03-28T20:55:49.187Z,14.02
2019-03-28T20:58:16.962Z,14.01
2019-03-28T21:00:46.225Z,14.02
2019-03-28T21:03:15.353Z,14.01
2019-03-28T21:05:43.679Z,14.01
2019-03-28T21:08:11.773Z,14.00
2019-03-28T21:10:39.608Z,13.98
2019-03-28T21:13:07.436Z,13.97
2019-03-28T21:15:35.231Z,13.96
2019-03-28T21:18:03.008Z,13.96
2019-03-28T21:20:30.807Z,13.96
2019-03-28T21:22:58.616Z,13.94
2019-03-28T21:25:29.462Z,13.93
2019-03-28T21:27:56.154Z,13.91
2019-03-28T21:30:26.954Z,13.91
2019-03-28T21:32:55.625Z,13.91
2019-03-28T21:35:23.352Z,13.90
2019-03-28T21:37:51.212Z,13.90
2019-03-28T21:40:19.009Z,13.88
2019-03-28T21:42:46.865Z,13.85
2019-03-28T21:45:15.098Z,13.82
2019-03-28T21:47:43.018Z,13.81
2019-03-28T21:50:10.847Z,13.80
2019-03-28T21:52:38.676Z,13.79
2019-03-28T21:55:07.829Z,13.77
2019-03-28T21:57:35.643Z,13.76
2019-03-28T22:00:06.135Z,13.76
2019-03-28T22:02:35.895Z,13.76
2019-03-28T22:05:04.020Z,13.76
2019-03-28T22:07:31.870Z,13.73
2019-03-28T22:09:59.727Z,13.72
2019-03-28T22:12:27.501Z,13.71
2019-03-28T22:14:55.287Z,13.69
2019-03-28T22:17:23.095Z,13.67
2019-03-28T22:19:51.661Z,13.67
2019-03-28T22:22:19.747Z,13.66
2019-03-28T22:24:47.576Z,13.65
2019-03-28T22:27:15.411Z,13.63
2019-03-28T22:29:43.255Z,13.61
2019-03-28T22:32:11.895Z,13.57
2019-03-28T22:34:42.648Z,13.56
2019-03-28T22:37:10.514Z,13.55
2019-03-28T22:39:38.987Z,13.55
2019-03-28T22:42:07.097Z,13.54
2019-03-28T22:44:34.959Z,13.53
2019-03-28T22:47:02.763Z,13.51
2019-03-28T22:49:31.271Z,13.50
2019-03-28T22:51:59.719Z,13.50
2019-03-28T22:54:27.571Z,13.48
2019-03-28T22:56:55.406Z,13.48
2019-03-28T22:59:23.206Z,13.47
2019-03-28T23:01:51.027Z,13.43
2019-03-28T23:04:18.800Z,13.38
2019-03-28T23:06:46.583Z,13.37
2019-03-28T23:09:14.379Z,13.36
2019-03-28T23:11:42.523Z,13.35
2019-03-28T23:14:10.624Z,13.30
2019-03-28T23:16:38.448Z,13.30
2019-03-28T23:19:06.250Z,13.29
2019-03-28T23:21:34.071Z,13.28
2019-03-28T23:24:01.936Z,13.28
2019-03-28T23:26:29.674Z,13.29
2019-03-28T23:28:57.499Z,13.28
2019-03-28T23:31:25.304Z,13.27
2019-03-28T23:33:53.092Z,13.25
2019-03-28T23:36:20.898Z,13.23
2019-03-28T23:38:48.688Z,13.21
2019-03-28T23:41:16.555Z,13.19
2019-03-28T23:43:44.391Z,13.19
2019-03-28T23:46:12.183Z,13.17
2019-03-28T23:48:40.168Z,13.18
2019-03-28T23:51:07.977Z,13.19
2019-03-28T23:53:35.790Z,13.18
2019-03-28T23:56:03.633Z,13.18
2019-03-28T23:58:31.414Z,13.16
